sensor_id;sensor_type;location;lat;lon;timestamp;temperature;humidity
37285;DHT22;23172;53.550;9.964;2023-02-22T00:01:52;10.80;99.90
37285;DHT22;23172;53.550;9.964;2023-02-22T00:07:11;10.80;99.90
37285;DHT22;23172;53.550;9.964;2023-02-22T00:12:14;10.80;99.90
37285;DHT22;23172;53.550;9.964;2023-02-22T00:17:16;10.70;99.90
37285;DHT22;23172;53.550;9.964;2023-02-22T00:22:21;10.70;99.90
37285;DHT22;23172;53.550;9.964;2023-02-22T00:27:23;10.70;99.90
37285;DHT22;23172;53.550;9.964;2023-02-22T00:32:24;10.70;99.90
37285;DHT22;23172;53.550;9.964;2023-02-22T00:37:28;10.60;99.90
37285;DHT22;23172;53.550;9.964;2023-02-22T00:42:31;10.60;99.90
37285;DHT22;23172;53.550;9.964;2023-02-22T00:47:33;11.30;99.90
37285;DHT22;23172;53.550;9.964;2023-02-22T00:52:36;11.00;99.90
37285;DHT22;23172;53.550;9.964;2023-02-22T00:57:38;10.80;99.90
37285;DHT22;23172;53.550;9.964;2023-02-22T01:02:41;10.70;99.90
37285;DHT22;23172;53.550;9.964;2023-02-22T01:07:45;10.70;99.90
37285;DHT22;23172;53.550;9.964;2023-02-22T01:12:47;10.60;99.90
37285;DHT22;23172;53.550;9.964;2023-02-22T01:17:51;11.20;99.90
37285;DHT22;23172;53.550;9.964;2023-02-22T01:22:56;10.90;99.90
37285;DHT22;23172;53.550;9.964;2023-02-22T01:27:59;10.70;99.90
37285;DHT22;23172;53.550;9.964;2023-02-22T01:33:02;10.60;99.90
37285;DHT22;23172;53.550;9.964;2023-02-22T01:38:05;10.50;99.90
37285;DHT22;23172;53.550;9.964;2023-02-22T01:43:15;10.40;99.90
37285;DHT22;23172;53.550;9.964;2023-02-22T01:48:20;10.40;99.90
37285;DHT22;23172;53.550;9.964;2023-02-22T01:53:27;10.30;99.90
37285;DHT22;23172;53.550;9.964;2023-02-22T01:58:31;10.30;99.90
37285;DHT22;23172;53.550;9.964;2023-02-22T02:03:36;10.30;99.90
37285;DHT22;23172;53.550;9.964;2023-02-22T02:08:47;10.30;99.90
37285;DHT22;23172;53.550;9.964;2023-02-22T02:13:51;10.20;99.90
37285;DHT22;23172;53.550;9.964;2023-02-22T02:18:55;10.90;99.90
37285;DHT22;23172;53.550;9.964;2023-02-22T02:30:05;10.50;99.90
37285;DHT22;23172;53.550;9.964;2023-02-22T02:35:18;10.30;99.90
37285;DHT22;23172;53.550;9.964;2023-02-22T02:40:27;10.30;99.90
37285;DHT22;23172;53.550;9.964;2023-02-22T02:45:35;10.30;99.90
37285;DHT22;23172;53.550;9.964;2023-02-22T02:50:42;10.20;99.90
37285;DHT22;23172;53.550;9.964;2023-02-22T02:55:45;10.30;99.90
37285;DHT22;23172;53.550;9.964;2023-02-22T03:00:48;10.30;99.90
37285;DHT22;23172;53.550;9.964;2023-02-22T03:06:03;10.30;99.90
37285;DHT22;23172;53.550;9.964;2023-02-22T03:11:12;10.30;99.90
37285;DHT22;23172;53.550;9.964;2023-02-22T03:16:19;10.30;99.90
37285;DHT22;23172;53.550;9.964;2023-02-22T03:21:31;10.30;99.90
37285;DHT22;23172;53.550;9.964;2023-02-22T03:26:37;10.30;99.90
37285;DHT22;23172;53.550;9.964;2023-02-22T03:31:44;10.30;99.90
37285;DHT22;23172;53.550;9.964;2023-02-22T03:36:53;10.20;99.90
37285;DHT22;23172;53.550;9.964;2023-02-22T03:41:59;10.20;99.90
37285;DHT22;23172;53.550;9.964;2023-02-22T03:47:08;10.20;99.90
37285;DHT22;23172;53.550;9.964;2023-02-22T03:52:13;10.20;99.90
37285;DHT22;23172;53.550;9.964;2023-02-22T03:57:18;10.20;99.90
37285;DHT22;23172;53.550;9.964;2023-02-22T04:02:21;10.20;99.90
37285;DHT22;23172;53.550;9.964;2023-02-22T04:07:24;10.20;99.90
37285;DHT22;23172;53.550;9.964;2023-02-22T04:12:26;10.20;99.90
37285;DHT22;23172;53.550;9.964;2023-02-22T04:17:28;10.20;99.90
37285;DHT22;23172;53.550;9.964;2023-02-22T04:22:31;10.30;99.90
37285;DHT22;23172;53.550;9.964;2023-02-22T04:27:33;10.30;99.90
37285;DHT22;23172;53.550;9.964;2023-02-22T04:32:35;10.20;99.90
37285;DHT22;23172;53.550;9.964;2023-02-22T04:37:38;10.30;99.90
37285;DHT22;23172;53.550;9.964;2023-02-22T04:42:40;10.30;99.90
37285;DHT22;23172;53.550;9.964;2023-02-22T04:47:41;10.30;99.90
37285;DHT22;23172;53.550;9.964;2023-02-22T04:52:45;10.20;99.90
37285;DHT22;23172;53.550;9.964;2023-02-22T04:57:46;10.20;99.90
37285;DHT22;23172;53.550;9.964;2023-02-22T05:02:49;10.30;99.90
37285;DHT22;23172;53.550;9.964;2023-02-22T05:07:52;10.30;99.90
37285;DHT22;23172;53.550;9.964;2023-02-22T05:12:54;10.20;99.90
37285;DHT22;23172;53.550;9.964;2023-02-22T05:17:56;10.20;99.90
37285;DHT22;23172;53.550;9.964;2023-02-22T05:23:00;10.20;99.90
37285;DHT22;23172;53.550;9.964;2023-02-22T05:28:06;10.20;99.90
37285;DHT22;23172;53.550;9.964;2023-02-22T05:33:09;10.30;99.90
37285;DHT22;23172;53.550;9.964;2023-02-22T05:38:13;10.30;99.90
37285;DHT22;23172;53.550;9.964;2023-02-22T05:43:15;10.30;99.90
37285;DHT22;23172;53.550;9.964;2023-02-22T05:48:17;10.30;99.90
37285;DHT22;23172;53.550;9.964;2023-02-22T05:53:21;10.30;99.90
37285;DHT22;23172;53.550;9.964;2023-02-22T05:58:23;10.30;99.90
37285;DHT22;23172;53.550;9.964;2023-02-22T06:03:25;10.30;99.90
37285;DHT22;23172;53.550;9.964;2023-02-22T06:08:28;10.30;99.90
37285;DHT22;23172;53.550;9.964;2023-02-22T06:13:30;10.30;99.90
37285;DHT22;23172;53.550;9.964;2023-02-22T06:18:32;10.30;99.90
37285;DHT22;23172;53.550;9.964;2023-02-22T06:23:36;10.30;99.90
37285;DHT22;23172;53.550;9.964;2023-02-22T06:28:37;10.30;99.90
37285;DHT22;23172;53.550;9.964;2023-02-22T06:33:39;10.30;99.90
37285;DHT22;23172;53.550;9.964;2023-02-22T06:38:42;10.30;99.90
37285;DHT22;23172;53.550;9.964;2023-02-22T06:43:46;10.30;99.90
37285;DHT22;23172;53.550;9.964;2023-02-22T06:48:48;10.40;99.90
37285;DHT22;23172;53.550;9.964;2023-02-22T06:53:52;10.40;99.90
37285;DHT22;23172;53.550;9.964;2023-02-22T06:58:54;10.40;99.90
37285;DHT22;23172;53.550;9.964;2023-02-22T07:03:56;10.40;99.90
37285;DHT22;23172;53.550;9.964;2023-02-22T07:08:59;10.40;99.90
37285;DHT22;23172;53.550;9.964;2023-02-22T07:14:01;10.40;99.90
37285;DHT22;23172;53.550;9.964;2023-02-22T07:19:03;10.30;99.90
37285;DHT22;23172;53.550;9.964;2023-02-22T07:24:07;10.40;99.90
37285;DHT22;23172;53.550;9.964;2023-02-22T07:29:08;10.40;99.90
37285;DHT22;23172;53.550;9.964;2023-02-22T07:34:11;10.30;99.90
37285;DHT22;23172;53.550;9.964;2023-02-22T07:39:15;10.40;99.90
37285;DHT22;23172;53.550;9.964;2023-02-22T07:44:16;10.40;99.90
37285;DHT22;23172;53.550;9.964;2023-02-22T07:49:18;10.40;99.90
37285;DHT22;23172;53.550;9.964;2023-02-22T07:54:22;10.50;99.90
37285;DHT22;23172;53.550;9.964;2023-02-22T07:59:24;10.40;99.90
37285;DHT22;23172;53.550;9.964;2023-02-22T08:04:26;10.40;99.90
37285;DHT22;23172;53.550;9.964;2023-02-22T08:09:29;10.50;99.90
37285;DHT22;23172;53.550;9.964;2023-02-22T08:14:31;10.60;99.90
37285;DHT22;23172;53.550;9.964;2023-02-22T08:19:33;10.60;99.90
37285;DHT22;23172;53.550;9.964;2023-02-22T08:24:36;10.60;99.90
37285;DHT22;23172;53.550;9.964;2023-02-22T08:29:38;10.70;99.90
37285;DHT22;23172;53.550;9.964;2023-02-22T08:34:41;10.70;99.90
37285;DHT22;23172;53.550;9.964;2023-02-22T08:39:44;10.80;99.90
37285;DHT22;23172;53.550;9.964;2023-02-22T08:44:46;10.80;99.90
37285;DHT22;23172;53.550;9.964;2023-02-22T08:49:48;11.00;99.90
37285;DHT22;23172;53.550;9.964;2023-02-22T08:54:51;11.00;99.90
37285;DHT22;23172;53.550;9.964;2023-02-22T08:59:53;10.90;99.90
37285;DHT22;23172;53.550;9.964;2023-02-22T09:04:55;10.90;99.90
37285;DHT22;23172;53.550;9.964;2023-02-22T09:09:58;11.00;99.90
37285;DHT22;23172;53.550;9.964;2023-02-22T09:15:00;11.00;99.90
37285;DHT22;23172;53.550;9.964;2023-02-22T09:20:02;10.90;99.90
37285;DHT22;23172;53.550;9.964;2023-02-22T09:25:06;10.90;99.90
37285;DHT22;23172;53.550;9.964;2023-02-22T09:30:15;10.80;99.90
37285;DHT22;23172;53.550;9.964;2023-02-22T09:35:22;10.80;99.90
37285;DHT22;23172;53.550;9.964;2023-02-22T09:40:30;10.90;99.90
37285;DHT22;23172;53.550;9.964;2023-02-22T09:45:37;11.00;99.90
37285;DHT22;23172;53.550;9.964;2023-02-22T09:50:45;11.00;99.90
37285;DHT22;23172;53.550;9.964;2023-02-22T09:55:51;11.00;99.90
37285;DHT22;23172;53.550;9.964;2023-02-22T10:00:57;11.10;99.90
37285;DHT22;23172;53.550;9.964;2023-02-22T10:06:07;11.10;99.90
37285;DHT22;23172;53.550;9.964;2023-02-22T10:11:19;11.20;99.90
37285;DHT22;23172;53.550;9.964;2023-02-22T10:16:28;11.30;99.90
37285;DHT22;23172;53.550;9.964;2023-02-22T10:21:44;11.60;99.90
37285;DHT22;23172;53.550;9.964;2023-02-22T10:26:50;11.80;99.90
37285;DHT22;23172;53.550;9.964;2023-02-22T10:31:57;12.00;99.90
37285;DHT22;23172;53.550;9.964;2023-02-22T10:37:03;12.20;99.90
37285;DHT22;23172;53.550;9.964;2023-02-22T10:42:07;12.60;99.90
37285;DHT22;23172;53.550;9.964;2023-02-22T10:47:11;12.90;99.90
37285;DHT22;23172;53.550;9.964;2023-02-22T10:52:22;13.30;99.90
37285;DHT22;23172;53.550;9.964;2023-02-22T10:57:31;13.80;99.90
37285;DHT22;23172;53.550;9.964;2023-02-22T11:02:35;14.10;99.90
37285;DHT22;23172;53.550;9.964;2023-02-22T11:07:36;14.20;99.50
37285;DHT22;23172;53.550;9.964;2023-02-22T11:12:41;14.40;99.10
37285;DHT22;23172;53.550;9.964;2023-02-22T11:17:45;14.50;98.70
37285;DHT22;23172;53.550;9.964;2023-02-22T11:22:51;14.70;98.20
37285;DHT22;23172;53.550;9.964;2023-02-22T11:28:06;14.70;97.20
37285;DHT22;23172;53.550;9.964;2023-02-22T11:33:16;14.60;96.80
37285;DHT22;23172;53.550;9.964;2023-02-22T11:38:24;14.50;96.50
37285;DHT22;23172;53.550;9.964;2023-02-22T11:43:27;14.40;96.40
37285;DHT22;23172;53.550;9.964;2023-02-22T11:48:32;14.60;96.20
37285;DHT22;23172;53.550;9.964;2023-02-22T11:53:52;14.70;96.10
37285;DHT22;23172;53.550;9.964;2023-02-22T11:59:02;14.60;95.10
37285;DHT22;23172;53.550;9.964;2023-02-22T12:04:28;14.40;95.20
37285;DHT22;23172;53.550;9.964;2023-02-22T12:09:40;14.30;95.20
37285;DHT22;23172;53.550;9.964;2023-02-22T12:14:53;14.30;95.10
37285;DHT22;23172;53.550;9.964;2023-02-22T12:20:03;14.20;95.00
37285;DHT22;23172;53.550;9.964;2023-02-22T12:25:17;14.20;94.40
37285;DHT22;23172;53.550;9.964;2023-02-22T12:30:23;14.20;94.40
37285;DHT22;23172;53.550;9.964;2023-02-22T12:35:30;14.50;94.10
37285;DHT22;23172;53.550;9.964;2023-02-22T12:40:41;14.50;93.70
37285;DHT22;23172;53.550;9.964;2023-02-22T12:45:50;14.60;93.50
37285;DHT22;23172;53.550;9.964;2023-02-22T12:50:57;14.60;93.60
37285;DHT22;23172;53.550;9.964;2023-02-22T12:56:12;14.70;93.20
37285;DHT22;23172;53.550;9.964;2023-02-22T13:01:19;14.60;92.80
37285;DHT22;23172;53.550;9.964;2023-02-22T13:06:35;14.40;92.90
37285;DHT22;23172;53.550;9.964;2023-02-22T13:11:44;14.20;92.90
37285;DHT22;23172;53.550;9.964;2023-02-22T13:16:55;14.20;93.10
37285;DHT22;23172;53.550;9.964;2023-02-22T13:22:05;14.10;93.10
37285;DHT22;23172;53.550;9.964;2023-02-22T13:27:11;14.10;93.20
37285;DHT22;23172;53.550;9.964;2023-02-22T13:32:35;14.00;93.00
37285;DHT22;23172;53.550;9.964;2023-02-22T13:54:21;14.10;93.00
37285;DHT22;23172;53.550;9.964;2023-02-22T13:59:27;14.20;93.20
37285;DHT22;23172;53.550;9.964;2023-02-22T14:04:39;14.10;93.20
37285;DHT22;23172;53.550;9.964;2023-02-22T14:09:46;14.10;93.40
37285;DHT22;23172;53.550;9.964;2023-02-22T14:15:12;14.10;93.50
37285;DHT22;23172;53.550;9.964;2023-02-22T14:20:23;14.00;93.30
37285;DHT22;23172;53.550;9.964;2023-02-22T14:25:35;14.00;93.50
37285;DHT22;23172;53.550;9.964;2023-02-22T14:30:38;13.90;93.60
37285;DHT22;23172;53.550;9.964;2023-02-22T14:35:40;13.90;93.70
37285;DHT22;23172;53.550;9.964;2023-02-22T14:40:45;13.90;93.70
37285;DHT22;23172;53.550;9.964;2023-02-22T14:45:51;13.90;93.80
37285;DHT22;23172;53.550;9.964;2023-02-22T14:50:57;13.90;93.90
37285;DHT22;23172;53.550;9.964;2023-02-22T14:56:04;13.90;93.90
37285;DHT22;23172;53.550;9.964;2023-02-22T15:01:26;13.80;94.00
37285;DHT22;23172;53.550;9.964;2023-02-22T15:06:31;13.80;94.20
37285;DHT22;23172;53.550;9.964;2023-02-22T15:11:36;13.70;94.40
37285;DHT22;23172;53.550;9.964;2023-02-22T15:16:45;13.50;94.50
37285;DHT22;23172;53.550;9.964;2023-02-22T15:21:48;13.50;94.80
37285;DHT22;23172;53.550;9.964;2023-02-22T15:26:54;13.30;95.00
37285;DHT22;23172;53.550;9.964;2023-02-22T15:31:56;13.30;95.20
37285;DHT22;23172;53.550;9.964;2023-02-22T15:37:18;13.20;95.40
37285;DHT22;23172;53.550;9.964;2023-02-22T15:42:26;13.10;95.60
37285;DHT22;23172;53.550;9.964;2023-02-22T15:47:30;13.10;95.80
37285;DHT22;23172;53.550;9.964;2023-02-22T15:52:32;13.10;96.00
37285;DHT22;23172;53.550;9.964;2023-02-22T15:57:35;13.00;96.10
37285;DHT22;23172;53.550;9.964;2023-02-22T16:02:38;13.00;96.20
37285;DHT22;23172;53.550;9.964;2023-02-22T16:07:44;12.90;96.20
37285;DHT22;23172;53.550;9.964;2023-02-22T16:12:49;12.90;96.40
37285;DHT22;23172;53.550;9.964;2023-02-22T16:17:52;12.80;96.50
37285;DHT22;23172;53.550;9.964;2023-02-22T16:22:56;12.80;96.60
37285;DHT22;23172;53.550;9.964;2023-02-22T16:28:00;12.70;96.70
37285;DHT22;23172;53.550;9.964;2023-02-22T16:33:07;12.70;96.80
37285;DHT22;23172;53.550;9.964;2023-02-22T16:38:12;12.70;96.90
37285;DHT22;23172;53.550;9.964;2023-02-22T16:43:19;12.60;97.10
37285;DHT22;23172;53.550;9.964;2023-02-22T16:48:22;12.60;97.40
37285;DHT22;23172;53.550;9.964;2023-02-22T16:53:26;12.50;97.50
37285;DHT22;23172;53.550;9.964;2023-02-22T16:58:33;12.50;97.70
37285;DHT22;23172;53.550;9.964;2023-02-22T17:03:36;12.40;97.80
37285;DHT22;23172;53.550;9.964;2023-02-22T17:08:39;12.30;97.90
37285;DHT22;23172;53.550;9.964;2023-02-22T17:13:42;12.30;98.10
37285;DHT22;23172;53.550;9.964;2023-02-22T17:18:45;12.20;98.30
37285;DHT22;23172;53.550;9.964;2023-02-22T17:23:47;12.20;98.50
37285;DHT22;23172;53.550;9.964;2023-02-22T17:28:50;12.20;98.60
37285;DHT22;23172;53.550;9.964;2023-02-22T17:34:01;12.10;98.80
37285;DHT22;23172;53.550;9.964;2023-02-22T17:39:04;12.10;99.10
37285;DHT22;23172;53.550;9.964;2023-02-22T17:44:11;12.00;99.20
37285;DHT22;23172;53.550;9.964;2023-02-22T17:49:13;12.00;99.30
37285;DHT22;23172;53.550;9.964;2023-02-22T17:54:15;12.00;99.40
37285;DHT22;23172;53.550;9.964;2023-02-22T17:59:18;12.00;99.40
37285;DHT22;23172;53.550;9.964;2023-02-22T18:04:20;12.00;99.50
37285;DHT22;23172;53.550;9.964;2023-02-22T18:09:22;11.90;99.60
37285;DHT22;23172;53.550;9.964;2023-02-22T18:14:25;11.90;99.70
37285;DHT22;23172;53.550;9.964;2023-02-22T18:19:29;11.90;99.80
37285;DHT22;23172;53.550;9.964;2023-02-22T18:24:31;11.80;99.90
37285;DHT22;23172;53.550;9.964;2023-02-22T18:29:35;11.80;99.90
37285;DHT22;23172;53.550;9.964;2023-02-22T18:34:37;11.80;99.90
37285;DHT22;23172;53.550;9.964;2023-02-22T18:39:39;11.80;99.90
37285;DHT22;23172;53.550;9.964;2023-02-22T18:44:44;11.80;99.90
37285;DHT22;23172;53.550;9.964;2023-02-22T18:49:46;11.70;99.90
37285;DHT22;23172;53.550;9.964;2023-02-22T18:54:48;11.70;99.90
37285;DHT22;23172;53.550;9.964;2023-02-22T18:59:51;11.70;99.90
37285;DHT22;23172;53.550;9.964;2023-02-22T19:04:54;11.70;99.90
37285;DHT22;23172;53.550;9.964;2023-02-22T19:09:57;11.60;99.90
37285;DHT22;23172;53.550;9.964;2023-02-22T19:15:01;11.60;99.90
37285;DHT22;23172;53.550;9.964;2023-02-22T19:20:03;11.60;99.90
37285;DHT22;23172;53.550;9.964;2023-02-22T19:25:06;11.50;99.90
37285;DHT22;23172;53.550;9.964;2023-02-22T19:30:11;11.50;99.90
37285;DHT22;23172;53.550;9.964;2023-02-22T19:35:13;11.50;99.90
37285;DHT22;23172;53.550;9.964;2023-02-22T19:40:25;11.50;99.90
37285;DHT22;23172;53.550;9.964;2023-02-22T19:45:29;11.50;99.90
37285;DHT22;23172;53.550;9.964;2023-02-22T19:50:31;11.50;99.90
37285;DHT22;23172;53.550;9.964;2023-02-22T19:55:35;11.40;99.90
37285;DHT22;23172;53.550;9.964;2023-02-22T20:00:38;11.40;99.90
37285;DHT22;23172;53.550;9.964;2023-02-22T20:05:41;11.40;99.90
37285;DHT22;23172;53.550;9.964;2023-02-22T20:10:43;11.40;99.90
37285;DHT22;23172;53.550;9.964;2023-02-22T20:15:47;11.30;99.90
37285;DHT22;23172;53.550;9.964;2023-02-22T20:20:50;11.30;99.90
37285;DHT22;23172;53.550;9.964;2023-02-22T20:25:52;11.30;99.90
37285;DHT22;23172;53.550;9.964;2023-02-22T20:30:55;11.30;99.90
37285;DHT22;23172;53.550;9.964;2023-02-22T20:36:03;11.20;99.90
37285;DHT22;23172;53.550;9.964;2023-02-22T20:41:06;11.10;99.90
37285;DHT22;23172;53.550;9.964;2023-02-22T20:46:10;11.10;99.90
37285;DHT22;23172;53.550;9.964;2023-02-22T20:51:13;11.00;99.90
37285;DHT22;23172;53.550;9.964;2023-02-22T20:56:17;11.00;99.90
37285;DHT22;23172;53.550;9.964;2023-02-22T21:01:20;10.90;99.90
37285;DHT22;23172;53.550;9.964;2023-02-22T21:06:22;10.90;99.90
37285;DHT22;23172;53.550;9.964;2023-02-22T21:11:26;10.90;99.90
37285;DHT22;23172;53.550;9.964;2023-02-22T21:16:33;10.90;99.90
37285;DHT22;23172;53.550;9.964;2023-02-22T21:21:35;10.80;99.90
37285;DHT22;23172;53.550;9.964;2023-02-22T21:26:38;10.70;99.90
37285;DHT22;23172;53.550;9.964;2023-02-22T21:31:41;10.70;99.90
37285;DHT22;23172;53.550;9.964;2023-02-22T21:36:43;10.70;99.90
37285;DHT22;23172;53.550;9.964;2023-02-22T21:41:46;10.70;99.90
37285;DHT22;23172;53.550;9.964;2023-02-22T21:46:50;10.70;99.90
37285;DHT22;23172;53.550;9.964;2023-02-22T21:51:52;10.60;99.90
37285;DHT22;23172;53.550;9.964;2023-02-22T21:56:54;10.60;99.90
37285;DHT22;23172;53.550;9.964;2023-02-22T22:01:57;10.60;99.90
37285;DHT22;23172;53.550;9.964;2023-02-22T22:07:00;10.60;99.90
37285;DHT22;23172;53.550;9.964;2023-02-22T22:12:03;10.60;99.90
37285;DHT22;23172;53.550;9.964;2023-02-22T22:17:07;10.60;99.90
37285;DHT22;23172;53.550;9.964;2023-02-22T22:22:09;10.60;99.90
37285;DHT22;23172;53.550;9.964;2023-02-22T22:27:12;10.60;99.90
37285;DHT22;23172;53.550;9.964;2023-02-22T22:32:15;10.50;99.90
37285;DHT22;23172;53.550;9.964;2023-02-22T22:37:20;10.50;99.90
37285;DHT22;23172;53.550;9.964;2023-02-22T22:42:22;10.50;99.90
37285;DHT22;23172;53.550;9.964;2023-02-22T22:47:27;10.50;99.90
37285;DHT22;23172;53.550;9.964;2023-02-22T22:52:29;10.50;99.90
37285;DHT22;23172;53.550;9.964;2023-02-22T22:57:34;10.50;99.90
37285;DHT22;23172;53.550;9.964;2023-02-22T23:02:37;10.50;99.90
37285;DHT22;23172;53.550;9.964;2023-02-22T23:07:40;10.40;99.90
37285;DHT22;23172;53.550;9.964;2023-02-22T23:12:41;10.40;99.90
37285;DHT22;23172;53.550;9.964;2023-02-22T23:17:45;10.30;99.90
37285;DHT22;23172;53.550;9.964;2023-02-22T23:22:46;10.30;99.90
37285;DHT22;23172;53.550;9.964;2023-02-22T23:27:49;10.30;99.90
37285;DHT22;23172;53.550;9.964;2023-02-22T23:32:53;10.20;99.90
37285;DHT22;23172;53.550;9.964;2023-02-22T23:37:56;10.20;99.90
37285;DHT22;23172;53.550;9.964;2023-02-22T23:42:58;10.20;99.90
37285;DHT22;23172;53.550;9.964;2023-02-22T23:48:05;10.20;99.90
37285;DHT22;23172;53.550;9.964;2023-02-22T23:53:09;10.20;99.90
37285;DHT22;23172;53.550;9.964;2023-02-22T23:58:14;10.20;99.90
